createdAt,value
2022-10-01T00:00:56.023Z,2.60
2022-10-01T00:01:56.131Z,2.50
2022-10-01T00:02:55.257Z,2.80
2022-10-01T00:03:55.952Z,3.00
2022-10-01T00:04:55.893Z,2.70
2022-10-01T00:05:55.823Z,2.80
2022-10-01T00:06:55.983Z,2.50
2022-10-01T00:08:17.076Z,2.40
2022-10-01T00:08:55.923Z,2.60
2022-10-01T00:10:17.364Z,2.50
2022-10-01T00:10:55.944Z,3.00
2022-10-01T00:12:17.454Z,2.40
2022-10-01T00:12:55.904Z,2.40
2022-10-01T00:14:17.524Z,3.40
2022-10-01T00:14:55.845Z,2.50
2022-10-01T00:16:18.327Z,1.90
2022-10-01T00:16:56.330Z,2.20
2022-10-01T00:27:04.258Z,2.10
2022-10-01T00:38:36.646Z,2.20
2022-10-01T00:45:43.662Z,3.50
2022-10-01T00:46:26.785Z,3.70
2022-10-01T00:47:26.634Z,3.10
2022-10-01T00:50:12.616Z,2.60
2022-10-01T00:53:39.650Z,3.80
2022-10-01T00:54:27.630Z,3.30
2022-10-01T00:55:26.939Z,2.40
2022-10-01T00:59:15.285Z,3.70
2022-10-01T01:00:16.946Z,2.80
2022-10-01T01:01:16.115Z,2.50
2022-10-01T01:02:16.026Z,3.00
2022-10-01T01:03:16.075Z,2.70
2022-10-01T01:04:15.960Z,2.50
2022-10-01T01:05:16.015Z,3.00
2022-10-01T01:06:15.905Z,2.60
2022-10-01T01:07:16.056Z,2.50
2022-10-01T01:08:15.965Z,2.60
2022-10-01T01:09:37.166Z,4.00
2022-10-01T01:10:16.241Z,3.70
2022-10-01T01:11:37.758Z,3.70
2022-10-01T01:12:16.065Z,2.50
2022-10-01T01:13:37.405Z,3.10
2022-10-01T01:14:16.536Z,2.60
2022-10-01T01:15:37.524Z,2.40
2022-10-01T01:16:17.093Z,3.20
2022-10-01T01:17:37.005Z,3.20
2022-10-01T01:18:15.886Z,2.60
2022-10-01T01:19:37.755Z,3.10
2022-10-01T01:20:15.857Z,3.00
2022-10-01T01:21:37.548Z,3.30
2022-10-01T01:22:17.057Z,3.20
2022-10-01T01:23:37.220Z,7.50
2022-10-01T01:24:15.734Z,5.10
2022-10-01T01:25:37.446Z,4.20
2022-10-01T01:26:16.555Z,3.60
2022-10-01T01:27:37.445Z,3.30
2022-10-01T01:28:16.182Z,3.00
2022-10-01T01:29:37.845Z,3.00
2022-10-01T01:30:16.584Z,3.70
2022-10-01T01:31:38.034Z,3.10
2022-10-01T01:32:15.215Z,2.80
2022-10-01T01:33:15.705Z,2.80
2022-10-01T01:34:36.905Z,3.00
2022-10-01T01:35:15.735Z,3.40
2022-10-01T01:36:15.605Z,3.20
2022-10-01T01:37:37.456Z,3.50
2022-10-01T01:38:15.574Z,3.30
2022-10-01T01:39:15.665Z,4.00
2022-10-01T01:40:37.305Z,3.10
2022-10-01T01:41:16.465Z,2.70
2022-10-01T01:42:36.685Z,3.40
2022-10-01T01:43:16.435Z,3.70
2022-10-01T01:44:37.456Z,3.30
2022-10-01T01:45:15.446Z,4.00
2022-10-01T01:46:37.564Z,3.20
2022-10-01T01:47:15.426Z,3.60
2022-10-01T01:48:37.364Z,3.30
2022-10-01T01:49:15.994Z,4.20
2022-10-01T01:50:37.406Z,3.70
2022-10-01T01:51:15.606Z,3.00
2022-10-01T09:44:08.860Z,2.10
2022-10-01T09:45:09.369Z,2.50
2022-10-01T09:46:09.112Z,2.50
2022-10-01T09:47:08.999Z,2.80
2022-10-01T09:48:08.962Z,1.80
2022-10-01T09:49:08.842Z,1.80
2022-10-01T09:50:08.861Z,2.30
2022-10-01T09:51:08.922Z,2.70
2022-10-01T09:52:09.041Z,2.60
2022-10-01T09:53:08.831Z,2.20
2022-10-01T09:54:08.679Z,2.40
2022-10-01T09:55:08.730Z,2.20
2022-10-01T09:56:08.563Z,2.20
2022-10-01T09:57:09.570Z,2.20
2022-10-01T09:58:08.692Z,3.20
2022-10-01T09:59:08.779Z,2.00
2022-10-01T10:00:08.649Z,2.30
2022-10-01T10:01:08.739Z,2.40
2022-10-01T10:02:08.667Z,2.40
2022-10-01T10:03:09.386Z,2.40
2022-10-01T10:04:08.829Z,2.10
2022-10-01T10:05:08.902Z,1.90
2022-10-01T10:06:08.640Z,2.00
2022-10-01T10:07:08.630Z,2.60
2022-10-01T10:08:09.219Z,2.10
2022-10-01T10:09:08.510Z,2.30
2022-10-01T10:10:08.571Z,2.50
2022-10-01T10:11:08.571Z,2.00
2022-10-01T10:12:08.670Z,2.50
2022-10-01T10:13:09.479Z,1.60
2022-10-01T10:14:08.640Z,1.90
2022-10-01T10:15:08.390Z,2.10
2022-10-01T10:16:08.669Z,2.70
2022-10-01T10:17:08.612Z,2.10
2022-10-01T10:18:08.484Z,1.90
2022-10-01T10:19:08.562Z,2.00
2022-10-01T10:20:08.531Z,1.90
2022-10-01T10:21:08.490Z,1.60
2022-10-01T10:22:08.439Z,1.90
2022-10-01T10:23:08.522Z,1.50
2022-10-01T10:24:08.619Z,2.00
2022-10-01T10:25:08.519Z,2.10
2022-10-01T10:26:08.290Z,2.00
2022-10-01T10:27:08.430Z,2.20
2022-10-01T10:28:08.335Z,2.40
2022-10-01T10:29:07.597Z,1.80
2022-10-01T10:30:08.382Z,1.90
2022-10-01T10:31:08.508Z,2.00
2022-10-01T10:32:08.329Z,2.00
2022-10-01T10:33:08.359Z,2.50
2022-10-01T10:34:08.239Z,2.10
2022-10-01T10:35:08.340Z,2.20
2022-10-01T10:36:08.209Z,2.40
2022-10-01T10:37:08.120Z,2.10
2022-10-01T10:38:08.280Z,2.00
2022-10-01T10:39:08.086Z,2.30
2022-10-01T10:40:08.282Z,2.20
2022-10-01T10:41:08.139Z,2.20
2022-10-01T10:42:08.439Z,1.90
2022-10-01T10:43:09.111Z,2.00
2022-10-01T10:44:08.270Z,1.80
2022-10-01T10:45:08.062Z,1.70
2022-10-01T10:46:08.231Z,2.40
2022-10-01T10:47:08.101Z,2.10
2022-10-01T10:48:08.263Z,2.30
2022-10-01T10:49:08.098Z,2.40
2022-10-01T10:50:08.206Z,2.20
2022-10-01T10:51:08.341Z,1.50
2022-10-01T10:52:07.909Z,1.80
2022-10-01T10:53:08.190Z,1.30
2022-10-01T10:54:08.003Z,2.40
2022-10-01T10:55:08.141Z,1.80
2022-10-01T10:56:07.892Z,1.70
2022-10-01T10:57:08.092Z,1.40
2022-10-01T10:58:08.741Z,1.60
2022-10-01T10:59:08.100Z,1.30
2022-10-01T11:00:07.900Z,1.20
2022-10-01T11:01:08.050Z,1.50
2022-10-01T11:02:08.143Z,1.70
2022-10-01T11:03:08.260Z,1.30
2022-10-01T11:04:07.930Z,1.70
2022-10-01T11:05:08.111Z,1.80
2022-10-01T11:06:08.140Z,1.40
2022-10-01T11:07:08.070Z,1.80
2022-10-01T11:08:09.132Z,1.40
2022-10-01T11:09:07.871Z,1.70
2022-10-01T11:10:07.960Z,2.30
2022-10-01T11:11:07.845Z,1.70
2022-10-01T11:12:07.961Z,1.30
2022-10-01T11:13:07.991Z,1.60
2022-10-01T11:14:07.890Z,1.50
2022-10-01T11:15:07.779Z,1.40
2022-10-01T11:16:08.006Z,1.50
2022-10-01T11:17:07.890Z,1.70
2022-10-01T11:18:07.900Z,1.70
2022-10-01T11:19:07.880Z,1.30
2022-10-01T11:20:08.050Z,1.30
2022-10-01T11:21:08.110Z,1.50
2022-10-01T11:22:07.789Z,1.40
2022-10-01T11:23:07.881Z,2.00
2022-10-01T11:24:07.670Z,1.40
2022-10-01T11:25:08.351Z,1.60
2022-10-01T11:26:07.629Z,1.70
2022-10-01T11:27:07.761Z,1.90
2022-10-01T11:28:07.693Z,2.20
2022-10-01T11:29:07.801Z,1.50
2022-10-01T11:30:07.582Z,1.70
2022-10-01T11:31:07.864Z,1.80
2022-10-01T11:32:07.791Z,1.70
2022-10-01T11:33:07.863Z,1.40
2022-10-01T11:34:07.681Z,2.40
2022-10-01T11:35:07.710Z,1.90
2022-10-01T11:36:08.169Z,2.10
2022-10-01T11:37:07.669Z,1.40
2022-10-01T11:38:07.600Z,1.50
2022-10-01T11:39:07.522Z,1.80
2022-10-01T11:40:07.633Z,2.00
2022-10-01T11:41:07.730Z,1.80
2022-10-01T11:42:07.660Z,1.80
2022-10-01T11:43:07.859Z,1.70
2022-10-01T11:44:08.389Z,1.90
2022-10-01T11:45:08.049Z,1.40
2022-10-01T11:46:07.718Z,1.20
2022-10-01T11:47:07.501Z,1.30
2022-10-01T11:48:07.665Z,1.20
2022-10-01T11:49:07.490Z,2.00
2022-10-01T11:50:07.470Z,1.50
2022-10-01T11:51:08.180Z,1.80
2022-10-01T11:52:07.456Z,1.50
2022-10-01T11:53:08.481Z,1.40
2022-10-01T11:54:07.380Z,1.30
2022-10-01T11:55:08.180Z,1.50
2022-10-01T11:56:07.370Z,1.00
2022-10-01T11:57:07.635Z,1.50
2022-10-01T11:58:06.620Z,2.20
2022-10-01T11:59:07.637Z,1.40
2022-10-01T12:00:07.270Z,1.30
2022-10-01T12:01:07.670Z,1.20
2022-10-01T12:02:07.894Z,1.70
2022-10-01T12:03:07.381Z,1.30
2022-10-01T12:04:07.322Z,1.30
2022-10-01T12:05:08.288Z,1.00
2022-10-01T12:06:07.384Z,1.30
2022-10-01T12:07:07.480Z,0.90
2022-10-01T12:08:07.283Z,1.10
2022-10-01T12:09:07.820Z,1.30
2022-10-01T12:10:07.360Z,0.80
2022-10-01T12:11:08.261Z,1.00
2022-10-01T12:12:07.289Z,1.50
2022-10-01T12:13:07.109Z,0.90
2022-10-01T12:14:07.249Z,0.90
2022-10-01T12:15:08.150Z,1.00
2022-10-01T12:16:07.404Z,0.70
2022-10-01T12:17:07.179Z,1.00
2022-10-01T12:18:07.641Z,1.00
2022-10-01T12:19:07.102Z,0.60
2022-10-01T12:20:07.185Z,0.90
2022-10-01T12:21:07.222Z,1.00
2022-10-01T12:22:07.321Z,0.70
2022-10-01T12:23:07.200Z,1.00
2022-10-01T12:24:07.032Z,0.60
2022-10-01T12:25:07.800Z,1.10
2022-10-01T12:26:06.969Z,0.80
2022-10-01T12:27:08.039Z,0.80
2022-10-01T12:28:07.016Z,1.00
2022-10-01T12:29:07.110Z,0.90
2022-10-01T12:30:06.981Z,0.80
2022-10-01T12:31:07.282Z,0.80
2022-10-01T12:32:07.011Z,0.80
2022-10-01T12:33:07.720Z,0.70
2022-10-01T12:34:06.980Z,0.90
2022-10-01T12:35:07.179Z,0.80
2022-10-01T12:36:07.001Z,0.70
2022-10-01T12:37:07.110Z,0.70
2022-10-01T12:38:07.089Z,0.90
2022-10-01T12:39:07.810Z,0.70
2022-10-01T12:40:07.019Z,0.80
2022-10-01T12:41:06.781Z,1.20
2022-10-01T12:42:07.050Z,0.70
2022-10-01T12:43:07.138Z,0.70
2022-10-01T12:44:13.438Z,0.70
2022-10-01T12:45:06.839Z,0.50
2022-10-01T12:46:07.157Z,1.00
2022-10-01T12:47:06.828Z,0.80
2022-10-01T12:48:06.508Z,0.80
2022-10-01T12:49:07.718Z,0.70
2022-10-01T12:50:06.902Z,0.90
2022-10-01T12:51:06.858Z,0.90
2022-10-01T12:52:06.900Z,1.30
2022-10-01T12:53:06.901Z,0.70
2022-10-01T12:54:08.594Z,1.00
2022-10-01T12:55:06.840Z,0.90
2022-10-01T12:56:06.637Z,1.00
2022-10-01T12:57:06.077Z,1.00
2022-10-01T12:58:06.668Z,0.80
2022-10-01T12:59:06.937Z,0.90
2022-10-01T13:00:06.689Z,0.80
2022-10-01T13:01:06.850Z,0.80
2022-10-01T13:02:06.795Z,0.80
2022-10-01T13:03:07.292Z,1.20
2022-10-01T13:04:06.648Z,1.10
2022-10-01T13:05:06.748Z,0.80
2022-10-01T13:06:06.838Z,0.90
2022-10-01T13:07:06.741Z,0.80
2022-10-01T13:08:07.222Z,0.90
2022-10-01T13:09:07.338Z,0.70
2022-10-01T13:10:06.698Z,0.80
2022-10-01T13:11:06.619Z,0.80
2022-10-01T13:12:06.809Z,0.90
2022-10-01T13:13:06.599Z,0.70
2022-10-01T13:14:06.619Z,1.00
2022-10-01T13:15:06.609Z,0.80
2022-10-01T13:16:06.992Z,1.50
2022-10-01T13:17:06.558Z,0.80
2022-10-01T13:18:06.748Z,1.00
2022-10-01T13:19:07.020Z,0.70
2022-10-01T13:20:06.568Z,1.00
2022-10-01T13:21:06.502Z,0.70
2022-10-01T13:22:06.540Z,0.80
2022-10-01T13:23:06.500Z,0.90
2022-10-01T13:24:07.238Z,0.90
2022-10-01T13:25:06.556Z,0.80
2022-10-01T13:26:06.337Z,0.80
2022-10-01T13:27:06.587Z,1.10
2022-10-01T13:28:06.397Z,0.60
2022-10-01T13:29:06.677Z,1.20
2022-10-01T13:30:06.417Z,1.20
2022-10-01T13:31:06.476Z,0.90
2022-10-01T13:32:06.349Z,1.00
2022-10-01T13:33:06.398Z,1.10
2022-10-01T18:55:28.906Z,0.70
2022-10-01T18:56:21.226Z,0.70
2022-10-01T19:10:24.813Z,0.60
2022-10-01T19:11:14.521Z,0.50
2022-10-01T19:12:11.312Z,0.70
2022-10-01T19:13:10.141Z,0.70
2022-10-01T19:14:09.400Z,0.90
2022-10-01T19:15:11.031Z,0.40
2022-10-01T19:16:10.120Z,0.70
2022-10-01T19:17:09.355Z,0.80
2022-10-01T19:18:11.391Z,0.60
2022-10-01T19:19:10.720Z,0.60
2022-10-01T19:20:09.312Z,0.70
2022-10-01T19:21:11.020Z,0.70
2022-10-01T19:22:09.831Z,0.70
2022-10-01T19:23:09.311Z,0.60
2022-10-01T19:24:10.560Z,0.50
2022-10-01T19:25:09.350Z,0.60
